createdAt,value
2023-03-18T06:03:02.069Z,100928.50
2023-03-18T06:05:39.923Z,100922.31
2023-03-18T06:08:09.975Z,100924.00
2023-03-18T06:10:46.916Z,100909.78
2023-03-18T06:13:16.864Z,100920.63
2023-03-18T06:15:52.987Z,100920.28
2023-03-18T06:18:25.567Z,100922.59
2023-03-18T06:21:02.922Z,100931.06
2023-03-18T06:23:39.948Z,100933.22
2023-03-18T06:26:09.963Z,100933.53
2023-03-18T06:28:46.970Z,100935.06
2023-03-18T06:31:17.205Z,100944.91
2023-03-18T06:33:55.979Z,100952.13
2023-03-18T06:36:26.673Z,100956.09
2023-03-18T06:39:02.995Z,100965.78
2023-03-18T06:41:40.032Z,100962.44
2023-03-18T06:44:10.069Z,100966.25
2023-03-18T06:46:46.960Z,100959.53
2023-03-18T06:49:19.942Z,100965.06
2023-03-18T06:51:57.020Z,100976.25
2023-03-18T06:54:34.064Z,100975.88
2023-03-18T06:57:04.186Z,100968.38
2023-03-18T06:59:41.028Z,100965.91
2023-03-18T07:02:12.771Z,100970.03
2023-03-18T07:04:51.992Z,100977.28
2023-03-18T07:07:22.315Z,100978.00
2023-03-18T07:09:58.995Z,100980.75
2023-03-18T07:12:30.126Z,100988.97
2023-03-18T07:15:07.083Z,100988.19
2023-03-18T07:17:37.413Z,100984.34
2023-03-18T07:20:18.077Z,100991.09
2023-03-18T07:22:56.011Z,100993.56
2023-03-18T07:25:26.018Z,100988.06
2023-03-18T07:28:03.067Z,100995.97
2023-03-18T07:30:33.320Z,100996.03
2023-03-18T07:33:10.117Z,100992.50
2023-03-18T07:35:43.076Z,100987.94
2023-03-18T07:38:21.065Z,100990.06
2023-03-18T07:40:51.399Z,100987.66
2023-03-18T07:43:28.081Z,100991.66
2023-03-18T07:45:58.762Z,100992.56
2023-03-18T07:48:35.063Z,100992.41
2023-03-18T07:51:08.682Z,100986.00
2023-03-18T07:53:46.174Z,100999.88
2023-03-18T07:56:23.119Z,100988.88
2023-03-18T07:58:53.568Z,100991.19
2023-03-18T08:01:30.060Z,100997.44
2023-03-18T08:04:00.167Z,100990.75
2023-03-18T08:06:39.086Z,100994.84
2023-03-18T08:09:10.687Z,100997.34
2023-03-18T08:11:47.064Z,100992.72
2023-03-18T08:14:17.517Z,100991.47
2023-03-18T08:16:54.164Z,100989.53
2023-03-18T08:19:24.315Z,100985.88
2023-03-18T08:22:04.161Z,100986.25
2023-03-18T08:24:34.234Z,100973.69
2023-03-18T08:27:11.140Z,100979.66
2023-03-18T08:29:41.129Z,100979.34
2023-03-18T08:32:19.154Z,100982.00
2023-03-18T08:34:49.410Z,100983.41
2023-03-18T08:37:29.118Z,100985.31
2023-03-18T08:40:06.166Z,100993.03
2023-03-18T08:42:36.147Z,100991.44
2023-03-18T08:45:14.196Z,100991.88
2023-03-18T08:47:51.236Z,101009.97
2023-03-18T08:50:21.526Z,101011.59
2023-03-18T08:53:00.186Z,101006.59
2023-03-18T08:55:34.498Z,101008.28
2023-03-18T08:58:12.205Z,101020.53
2023-03-18T09:00:51.238Z,101003.16
2023-03-18T09:03:21.633Z,100998.97
2023-03-18T09:05:59.206Z,101008.81
2023-03-18T09:08:39.219Z,101014.91
2023-03-18T09:11:10.011Z,101017.34
2023-03-18T09:13:47.225Z,101007.22
2023-03-18T09:16:17.446Z,101013.88
2023-03-18T09:18:54.245Z,101013.28
2023-03-18T09:21:24.203Z,101015.75
2023-03-18T09:24:03.239Z,101024.91
2023-03-18T09:26:33.265Z,101035.59
2023-03-18T09:29:10.257Z,101043.50
2023-03-18T09:31:40.361Z,101054.97
2023-03-18T09:34:20.311Z,101051.00
2023-03-18T09:36:51.308Z,101053.84
2023-03-18T09:39:31.254Z,101049.59
2023-03-18T09:42:18.001Z,101051.31
2023-03-18T09:44:57.247Z,101041.22
2023-03-18T09:47:52.297Z,101048.09
2023-03-18T09:50:44.227Z,101043.88
2023-03-18T09:53:24.197Z,101039.16
2023-03-18T09:56:08.254Z,101035.16
2023-03-18T09:58:59.304Z,101040.38
2023-03-18T10:01:31.426Z,101028.88
2023-03-18T10:04:14.556Z,101029.25
2023-03-18T10:06:48.358Z,101022.88
2023-03-18T10:09:30.267Z,101023.84
2023-03-18T10:12:14.569Z,101022.81
2023-03-18T10:14:56.292Z,101024.34
2023-03-18T10:17:33.138Z,101021.34
2023-03-18T10:20:14.313Z,101022.88
2023-03-18T10:23:06.300Z,101029.34
2023-03-18T10:25:49.308Z,101029.25
2023-03-18T10:29:05.035Z,101038.28
2023-03-18T10:32:05.284Z,101036.84
2023-03-18T10:34:44.378Z,101037.03
2023-03-18T10:37:33.308Z,101043.28
2023-03-18T10:40:04.435Z,101042.97
2023-03-18T10:42:42.366Z,101045.25
2023-03-18T10:45:32.471Z,101045.56
2023-03-18T10:48:17.339Z,101046.09
2023-03-18T10:50:54.748Z,101045.72
2023-03-18T10:53:38.353Z,101052.25
2023-03-18T10:56:18.375Z,101057.28
2023-03-18T10:58:49.306Z,101049.56
2023-03-18T11:01:32.409Z,101057.03
2023-03-18T11:04:06.750Z,101062.03
2023-03-18T11:06:51.312Z,101054.31
2023-03-18T11:09:24.209Z,101061.13
2023-03-18T11:12:07.390Z,101059.13
2023-03-18T11:14:40.436Z,101054.72
2023-03-18T11:17:32.364Z,101052.34
2023-03-18T11:20:11.456Z,101061.66
2023-03-18T11:22:55.428Z,101060.56
2023-03-18T11:25:35.393Z,101059.75
2023-03-18T11:28:09.003Z,101053.69
2023-03-18T11:30:57.463Z,101056.66
2023-03-18T11:33:43.401Z,101058.91
2023-03-18T11:36:20.548Z,101056.19
2023-03-18T11:39:07.413Z,101056.13
2023-03-18T11:41:42.627Z,101052.38
2023-03-18T11:44:27.372Z,101053.13
2023-03-18T11:47:04.536Z,101047.72
2023-03-18T11:49:43.471Z,101046.16
2023-03-18T11:52:34.167Z,101047.47
2023-03-18T11:55:34.691Z,101053.72
2023-03-18T11:58:38.447Z,101051.25
2023-03-18T12:01:17.596Z,101047.41
2023-03-18T12:04:12.461Z,101046.38
2023-03-18T12:06:57.242Z,101047.03
2023-03-18T12:09:43.449Z,101047.09
2023-03-18T12:12:47.477Z,101042.91
2023-03-18T12:15:28.292Z,101053.00
2023-03-18T12:18:17.480Z,101050.00
2023-03-18T12:20:53.409Z,101053.34
2023-03-18T12:24:05.471Z,101045.41
2023-03-18T12:26:43.971Z,101048.97
2023-03-18T12:29:50.460Z,101054.28
2023-03-18T12:32:32.785Z,101054.66
2023-03-18T12:35:44.454Z,101046.13
2023-03-18T12:39:08.091Z,101051.84
2023-03-18T12:41:59.470Z,101054.25
2023-03-18T12:44:46.691Z,101056.88
2023-03-18T12:47:30.528Z,101049.38
2023-03-18T12:50:05.668Z,101052.72
2023-03-18T12:52:50.504Z,101056.88
2023-03-18T12:55:27.031Z,101050.44
2023-03-18T12:58:10.500Z,101051.47
2023-03-18T13:00:48.067Z,101036.75
2023-03-18T13:03:40.538Z,101040.66
2023-03-18T13:06:17.344Z,101038.06
2023-03-18T13:09:10.548Z,101033.94
2023-03-18T13:12:09.576Z,101029.63
2023-03-18T13:15:01.314Z,101036.06
2023-03-18T13:17:43.502Z,101034.59
2023-03-18T13:20:24.548Z,101028.75
2023-03-18T13:23:18.548Z,101022.53
2023-03-18T13:26:04.218Z,101026.41
2023-03-18T13:29:07.662Z,101029.13
2023-03-18T13:31:55.014Z,101028.25
2023-03-18T13:35:17.567Z,101025.94
2023-03-18T13:38:21.778Z,101030.16
2023-03-18T13:41:17.628Z,101018.69
2023-03-18T13:43:51.805Z,101034.09
2023-03-18T13:46:39.619Z,101031.41
2023-03-18T13:49:29.581Z,101029.31
2023-03-18T13:52:02.146Z,101029.88
2023-03-18T13:54:47.957Z,101034.44
2023-03-18T13:57:47.905Z,101024.53
2023-03-18T14:00:49.627Z,101017.78
